createdAt,value
2023-01-23T00:01:10.229Z,2.46
2023-01-23T00:03:37.912Z,2.84
2023-01-23T00:06:08.286Z,3.31
2023-01-23T00:08:36.716Z,3.25
2023-01-23T00:11:08.177Z,3.36
2023-01-23T00:13:35.641Z,3.62
2023-01-23T00:16:05.523Z,3.31
2023-01-23T00:18:33.008Z,2.51
2023-01-23T00:21:04.940Z,2.46
2023-01-23T00:23:32.501Z,2.48
2023-01-23T00:26:04.047Z,2.82
2023-01-23T00:28:32.779Z,3.15
2023-01-23T00:31:05.191Z,2.66
2023-01-23T00:33:32.781Z,2.75
2023-01-23T00:36:00.438Z,2.71
2023-01-23T00:38:28.320Z,2.51
2023-01-23T00:40:56.437Z,2.45
2023-01-23T00:43:24.265Z,2.41
2023-01-23T00:45:53.057Z,2.40
2023-01-23T00:48:20.464Z,2.78
2023-01-23T00:50:48.579Z,2.98
2023-01-23T00:53:16.383Z,3.12
2023-01-23T00:55:43.923Z,2.87
2023-01-23T00:58:11.886Z,3.43
2023-01-23T01:00:40.204Z,3.14
2023-01-23T01:03:09.217Z,3.33
2023-01-23T01:05:36.699Z,3.04
2023-01-23T01:08:04.699Z,2.68
2023-01-23T01:10:33.991Z,2.38
2023-01-23T01:13:03.013Z,2.58
2023-01-23T01:15:30.663Z,2.60
2023-01-23T01:17:58.329Z,2.68
2023-01-23T01:20:28.609Z,2.49
2023-01-23T01:22:57.544Z,2.56
2023-01-23T01:25:25.122Z,2.58
2023-01-23T01:27:52.554Z,2.52
2023-01-23T01:30:20.687Z,3.01
2023-01-23T01:32:49.270Z,2.57
2023-01-23T01:35:16.673Z,2.38
2023-01-23T01:37:45.525Z,2.91
2023-01-23T01:40:15.514Z,2.97
2023-01-23T01:42:44.621Z,3.03
2023-01-23T01:45:49.168Z,3.09
2023-01-23T01:48:17.369Z,2.96
2023-01-23T01:50:44.825Z,3.12
2023-01-23T01:53:14.297Z,3.12
2023-01-23T01:55:43.479Z,2.74
2023-01-23T01:58:11.116Z,2.88
2023-01-23T02:00:38.640Z,3.21
2023-01-23T02:03:06.194Z,3.50
2023-01-23T02:05:37.237Z,3.56
2023-01-23T02:08:13.265Z,3.37
2023-01-23T02:10:42.204Z,4.32
2023-01-23T02:13:22.672Z,3.44
2023-01-23T02:15:50.604Z,3.14
2023-01-23T02:21:02.530Z,3.18
2023-01-23T02:23:40.894Z,3.02
2023-01-23T02:26:13.508Z,3.16
2023-01-23T02:28:43.447Z,2.67
2023-01-23T02:31:11.525Z,2.64
2023-01-23T02:33:46.738Z,2.68
2023-01-23T02:36:14.518Z,3.02
2023-01-23T02:39:00.008Z,3.09
2023-01-23T02:41:32.485Z,2.74
2023-01-23T02:44:03.595Z,3.55
2023-01-23T02:46:31.040Z,2.65
2023-01-23T02:48:58.446Z,2.38
2023-01-23T02:51:25.983Z,2.53
2023-01-23T02:53:53.511Z,3.80
2023-01-23T02:56:21.044Z,3.64
2023-01-23T02:59:07.372Z,2.87
2023-01-23T03:01:35.872Z,2.85
2023-01-23T03:04:04.696Z,3.33
2023-01-23T03:06:36.259Z,3.35
2023-01-23T03:09:09.555Z,3.41
2023-01-23T03:11:38.655Z,3.52
2023-01-23T03:14:09.773Z,3.10
2023-01-23T03:16:38.482Z,2.98
2023-01-23T03:19:08.893Z,2.99
2023-01-23T03:21:39.916Z,2.95
2023-01-23T03:24:08.992Z,2.88
2023-01-23T03:26:38.639Z,3.12
2023-01-23T03:29:25.435Z,2.69
2023-01-23T03:31:53.010Z,2.71
2023-01-23T03:34:22.184Z,2.97
2023-01-23T03:36:49.668Z,2.71
2023-01-23T03:39:34.551Z,3.15
2023-01-23T03:42:01.949Z,2.74
2023-01-23T03:44:30.728Z,2.76
2023-01-23T03:46:58.287Z,3.60
2023-01-23T03:49:25.808Z,3.23
2023-01-23T03:51:53.268Z,2.96
2023-01-23T03:54:20.727Z,3.19
2023-01-23T03:56:48.149Z,2.84
2023-01-23T03:59:15.615Z,2.76
2023-01-23T04:01:44.383Z,3.37
2023-01-23T04:04:11.824Z,3.62
2023-01-23T04:06:39.245Z,2.91
2023-01-23T04:09:06.909Z,2.73
2023-01-23T04:11:34.339Z,2.65
2023-01-23T04:14:01.759Z,2.60
2023-01-23T04:16:29.324Z,2.88
2023-01-23T04:18:58.086Z,3.43
2023-01-23T04:21:25.667Z,2.85
2023-01-23T04:23:53.086Z,3.05
2023-01-23T04:26:20.568Z,3.22
2023-01-23T04:28:48.032Z,2.99
2023-01-23T04:31:15.599Z,2.72
2023-01-23T04:33:43.038Z,3.01
2023-01-23T04:36:12.657Z,2.93
2023-01-23T04:38:40.323Z,3.10
2023-01-23T04:41:07.784Z,3.52
2023-01-23T04:43:35.872Z,3.48
2023-01-23T04:46:03.339Z,3.88
2023-01-23T04:48:30.793Z,2.82
2023-01-23T04:50:58.244Z,2.82
2023-01-23T04:53:27.279Z,2.85
2023-01-23T04:55:54.703Z,2.79
2023-01-23T04:58:22.457Z,3.26
2023-01-23T05:00:49.963Z,3.05
2023-01-23T05:03:17.471Z,3.70
2023-01-23T05:05:44.945Z,2.92
2023-01-23T05:08:12.821Z,2.52
2023-01-23T05:10:41.593Z,2.66
2023-01-23T05:13:10.290Z,3.04
2023-01-23T05:15:37.783Z,2.70
2023-01-23T05:18:05.406Z,3.26
2023-01-23T05:20:32.891Z,3.30
2023-01-23T05:23:00.289Z,3.28
2023-01-23T05:25:29.435Z,2.91
2023-01-23T05:27:58.213Z,2.84
2023-01-23T05:30:25.649Z,2.51
2023-01-23T05:32:53.192Z,2.50
2023-01-23T05:35:20.594Z,2.65
2023-01-23T05:37:51.589Z,3.49
2023-01-23T05:40:20.144Z,3.29
2023-01-23T05:42:47.777Z,3.05
2023-01-23T05:45:17.475Z,3.26
2023-01-23T05:47:45.420Z,3.21
2023-01-23T05:50:16.852Z,2.85
2023-01-23T05:52:44.421Z,2.76
2023-01-23T05:55:12.119Z,2.70
2023-01-23T05:57:39.610Z,2.86
2023-01-23T06:00:09.952Z,2.52
2023-01-23T06:02:38.817Z,2.62
2023-01-23T06:05:07.314Z,3.19
2023-01-23T06:07:34.748Z,3.38
2023-01-23T06:10:02.206Z,3.03
2023-01-23T06:12:29.605Z,2.74
2023-01-23T06:14:57.037Z,3.13
2023-01-23T06:17:24.496Z,3.54
2023-01-23T06:19:53.269Z,3.16
2023-01-23T06:22:20.677Z,2.98
2023-01-23T06:24:48.121Z,2.97
2023-01-23T06:27:15.675Z,3.72
2023-01-23T06:29:43.093Z,3.88
2023-01-23T06:32:10.508Z,4.16
2023-01-23T06:34:37.980Z,4.49
2023-01-23T06:37:06.741Z,4.25
2023-01-23T06:39:35.081Z,3.44
2023-01-23T06:42:02.530Z,3.27
2023-01-23T06:44:29.967Z,3.71
2023-01-23T06:46:57.389Z,3.45
2023-01-23T06:49:24.815Z,2.90
2023-01-23T06:51:52.253Z,2.81
2023-01-23T06:54:21.137Z,3.42
2023-01-23T06:56:49.328Z,3.12
2023-01-23T06:59:16.794Z,3.10
2023-01-23T07:01:44.469Z,2.96
2023-01-23T07:04:12.206Z,3.15
2023-01-23T07:06:39.707Z,3.02
2023-01-23T07:09:07.162Z,3.24
2023-01-23T07:11:36.979Z,3.60
2023-01-23T07:14:04.435Z,2.96
2023-01-23T07:16:32.865Z,2.86
2023-01-23T07:19:01.571Z,2.99
2023-01-23T07:21:29.116Z,2.59
2023-01-23T07:23:56.825Z,2.73
2023-01-23T07:26:24.238Z,3.45
2023-01-23T07:28:53.656Z,3.06
2023-01-23T07:31:21.342Z,4.01
2023-01-23T07:33:48.972Z,2.56
2023-01-23T07:36:18.440Z,2.83
2023-01-23T07:38:46.105Z,2.52
2023-01-23T07:41:13.644Z,2.99
2023-01-23T07:43:41.097Z,2.83
2023-01-23T07:46:10.003Z,2.99
2023-01-23T07:48:37.595Z,3.25
2023-01-23T07:51:06.131Z,2.67
2023-01-23T07:53:33.727Z,2.81
2023-01-23T07:56:04.628Z,3.23
2023-01-23T07:58:32.075Z,3.04
2023-01-23T08:00:59.589Z,3.46
2023-01-23T08:03:28.953Z,2.84
2023-01-23T08:05:56.514Z,2.48
2023-01-23T08:08:24.005Z,2.76
2023-01-23T08:10:51.415Z,2.80
2023-01-23T08:13:18.807Z,2.67
2023-01-23T08:15:46.588Z,3.08
2023-01-23T08:18:14.077Z,2.96
2023-01-23T08:20:42.817Z,2.61
2023-01-23T08:23:10.256Z,2.54
2023-01-23T08:25:39.659Z,3.15
2023-01-23T08:28:07.387Z,3.03
2023-01-23T08:30:34.903Z,3.03
2023-01-23T08:33:04.730Z,3.22
2023-01-23T08:35:32.194Z,3.56
2023-01-23T08:38:02.434Z,4.09
2023-01-23T08:40:30.150Z,3.58
2023-01-23T08:42:57.888Z,3.40
2023-01-23T08:45:25.498Z,4.05
2023-01-23T08:47:52.966Z,3.46
2023-01-23T08:50:20.758Z,3.62
2023-01-23T08:52:48.380Z,3.34
2023-01-23T08:55:17.283Z,3.03
2023-01-23T08:57:44.698Z,3.08
2023-01-23T09:00:20.900Z,3.38
2023-01-23T09:02:48.577Z,3.81
2023-01-23T09:05:16.331Z,3.52
2023-01-23T09:07:43.900Z,4.84
2023-01-23T09:10:12.737Z,4.05
2023-01-23T09:12:42.664Z,4.94
2023-01-23T09:15:11.067Z,4.14
2023-01-23T09:17:38.508Z,3.24
2023-01-23T09:20:07.228Z,3.76
2023-01-23T09:22:34.597Z,3.69
2023-01-23T09:25:02.030Z,3.00
2023-01-23T09:27:29.409Z,3.24
2023-01-23T09:29:58.184Z,3.20
2023-01-23T09:32:25.637Z,3.28
2023-01-23T09:34:54.822Z,3.26
2023-01-23T09:37:22.867Z,3.29
2023-01-23T09:39:50.297Z,3.77
2023-01-23T09:42:21.837Z,4.04
2023-01-23T09:44:53.791Z,4.87
2023-01-23T09:47:28.424Z,4.89
2023-01-23T09:50:03.503Z,4.73
2023-01-23T09:52:35.099Z,5.32
2023-01-23T09:55:12.271Z,4.81
2023-01-23T09:57:47.486Z,4.26
2023-01-23T10:00:21.556Z,4.19
2023-01-23T10:02:51.553Z,3.67
2023-01-23T10:05:21.575Z,3.39
2023-01-23T10:08:11.264Z,2.83
2023-01-23T10:10:54.330Z,3.87
2023-01-23T10:13:33.087Z,3.73
2023-01-23T10:16:49.961Z,3.52
2023-01-23T10:19:32.449Z,3.42
2023-01-23T10:22:04.941Z,2.87
2023-01-23T10:24:45.707Z,3.06
2023-01-23T10:27:19.651Z,3.18
2023-01-23T10:29:50.818Z,3.18
2023-01-23T10:32:25.585Z,3.72
2023-01-23T10:34:58.532Z,3.14
2023-01-23T10:37:42.902Z,2.99
2023-01-23T10:40:14.962Z,3.23
2023-01-23T10:42:42.589Z,4.13
2023-01-23T10:45:18.465Z,3.76
2023-01-23T10:47:54.701Z,3.31
2023-01-23T10:50:36.568Z,3.36
2023-01-23T10:53:07.867Z,3.62
2023-01-23T10:55:35.317Z,3.12
2023-01-23T10:58:03.328Z,3.89
2023-01-23T11:00:37.259Z,3.50
2023-01-23T11:03:28.897Z,3.96
2023-01-23T11:06:03.707Z,4.05
2023-01-23T11:08:33.315Z,3.49
2023-01-23T11:11:22.678Z,4.09
2023-01-23T11:13:52.108Z,4.19
2023-01-23T11:16:22.238Z,4.33
2023-01-23T11:18:54.990Z,3.66
2023-01-23T11:21:24.923Z,3.62
2023-01-23T11:24:09.571Z,3.41
2023-01-23T11:26:38.418Z,3.15
2023-01-23T11:29:21.381Z,3.39
2023-01-23T11:31:50.552Z,3.71
2023-01-23T11:34:24.296Z,4.05
2023-01-23T11:37:00.856Z,4.89
2023-01-23T11:39:40.185Z,4.25
2023-01-23T11:42:10.772Z,4.49
2023-01-23T11:44:45.915Z,4.08
2023-01-23T11:47:36.000Z,3.76
2023-01-23T11:50:23.001Z,3.57
2023-01-23T11:53:02.345Z,3.61
2023-01-23T11:55:57.277Z,3.09
2023-01-23T11:58:49.170Z,2.91
2023-01-23T12:01:25.924Z,2.67
2023-01-23T12:04:27.995Z,2.79
2023-01-23T12:07:06.732Z,3.92
2023-01-23T12:09:46.176Z,3.25
2023-01-23T12:12:22.700Z,3.54
2023-01-23T12:15:03.093Z,3.39
2023-01-23T12:17:42.893Z,4.19
2023-01-23T12:20:30.761Z,3.24
2023-01-23T12:23:23.504Z,2.96
2023-01-23T12:26:04.169Z,3.09
2023-01-23T12:28:53.980Z,3.33
2023-01-23T12:31:36.654Z,3.60
2023-01-23T12:34:24.612Z,3.20
2023-01-23T12:37:19.314Z,3.22
2023-01-23T12:40:01.855Z,3.19
2023-01-23T12:42:38.734Z,2.90
2023-01-23T12:45:17.893Z,3.01
2023-01-23T12:47:53.047Z,3.10
2023-01-23T12:50:24.330Z,3.13
2023-01-23T12:52:56.283Z,4.29
2023-01-23T12:55:27.095Z,3.83
2023-01-23T12:58:00.203Z,3.01
2023-01-23T13:00:45.623Z,3.61
2023-01-23T13:03:37.505Z,3.89
2023-01-23T13:06:28.533Z,3.84
2023-01-23T13:09:16.666Z,4.25
2023-01-23T13:11:53.918Z,3.25
2023-01-23T13:15:00.627Z,3.73
2023-01-23T13:17:36.311Z,2.99
2023-01-23T13:20:47.478Z,3.16
2023-01-23T13:23:27.676Z,3.45
2023-01-23T13:26:32.245Z,3.80
2023-01-23T13:29:02.170Z,3.68
2023-01-23T13:31:50.093Z,3.37
2023-01-23T13:34:42.086Z,4.33
2023-01-23T13:37:50.931Z,4.26
2023-01-23T13:40:21.433Z,3.72
2023-01-23T13:42:49.376Z,3.29
2023-01-23T13:45:27.403Z,3.42
2023-01-23T14:20:19.275Z,3.93
2023-01-23T14:22:48.199Z,3.59
2023-01-23T14:25:18.271Z,3.48
2023-01-23T14:27:54.577Z,3.05
2023-01-23T14:30:26.472Z,3.35
2023-01-23T14:32:54.374Z,4.04
2023-01-23T14:35:25.737Z,3.30
2023-01-23T14:37:57.396Z,3.69
2023-01-23T14:40:28.326Z,2.93
2023-01-23T14:43:01.908Z,3.03
2023-01-23T14:45:32.890Z,3.52
2023-01-23T14:48:08.496Z,3.21
2023-01-23T14:50:36.622Z,2.93
2023-01-23T14:53:07.205Z,3.04
2023-01-23T14:55:38.518Z,3.11
2023-01-23T14:58:07.440Z,3.22
2023-01-23T15:00:36.910Z,3.04
2023-01-23T15:03:05.537Z,2.97
2023-01-23T15:05:33.543Z,3.21
2023-01-23T15:08:03.968Z,3.12
2023-01-23T15:10:36.880Z,3.28
2023-01-23T15:13:09.799Z,3.63
2023-01-23T15:15:37.595Z,3.68
2023-01-23T15:18:15.997Z,4.17
2023-01-23T15:20:54.108Z,3.43
2023-01-23T15:23:28.242Z,3.17
2023-01-23T15:26:33.511Z,3.26
2023-01-23T15:29:03.723Z,3.47
2023-01-23T15:31:33.461Z,3.21
2023-01-23T15:34:19.146Z,4.06
2023-01-23T15:36:48.086Z,3.63
2023-01-23T15:39:20.615Z,3.48
2023-01-23T15:41:52.428Z,3.23
2023-01-23T15:44:22.115Z,3.14
2023-01-23T15:46:49.946Z,3.47
2023-01-23T15:49:25.313Z,3.95
2023-01-23T15:51:53.250Z,3.06
2023-01-23T15:54:25.317Z,4.03
2023-01-23T15:57:06.549Z,3.03
2023-01-23T15:59:35.880Z,3.09
2023-01-23T16:02:03.347Z,2.75
2023-01-23T16:04:30.803Z,2.97
2023-01-23T16:07:01.147Z,3.14
2023-01-23T16:09:31.157Z,3.03
2023-01-23T16:12:00.812Z,3.28
2023-01-23T16:14:28.734Z,3.42
2023-01-23T16:16:58.261Z,3.96
2023-01-23T16:19:32.163Z,3.50
2023-01-23T16:22:05.261Z,3.19
2023-01-23T16:24:37.750Z,3.56
2023-01-23T16:27:06.977Z,3.02
2023-01-23T16:29:35.860Z,3.43
2023-01-23T16:32:04.243Z,4.10
2023-01-23T16:34:31.800Z,3.56
2023-01-23T16:37:00.809Z,3.66
2023-01-23T16:39:32.043Z,3.55
2023-01-23T16:41:59.556Z,3.26
2023-01-23T16:44:28.401Z,3.28
2023-01-23T16:46:55.819Z,3.33
2023-01-23T16:49:23.517Z,3.22
2023-01-23T16:51:58.389Z,2.94
2023-01-23T16:54:26.538Z,3.03
2023-01-23T16:56:56.910Z,3.29
2023-01-23T16:59:33.328Z,3.30
2023-01-23T17:02:01.589Z,3.03
2023-01-23T17:04:29.113Z,2.75
2023-01-23T17:06:56.532Z,2.53
2023-01-23T17:09:24.014Z,2.82
2023-01-23T17:11:54.604Z,2.39
2023-01-23T17:14:26.878Z,2.58
2023-01-23T17:17:01.497Z,2.51
2023-01-23T17:19:31.787Z,2.72
2023-01-23T17:22:01.337Z,2.83
2023-01-23T17:24:29.663Z,2.79
2023-01-23T17:26:57.090Z,2.81
2023-01-23T17:29:24.713Z,3.29
2023-01-23T17:31:53.154Z,2.71
2023-01-23T17:34:25.189Z,2.58
2023-01-23T17:36:54.369Z,2.69
2023-01-23T17:39:22.186Z,3.10
2023-01-23T17:41:51.330Z,3.23
2023-01-23T17:44:18.798Z,2.88
2023-01-23T17:46:47.472Z,3.27
2023-01-23T17:49:29.396Z,3.53
2023-01-23T17:51:58.628Z,3.09
2023-01-23T17:54:27.462Z,2.67
2023-01-23T17:56:55.134Z,2.59
2023-01-23T17:59:22.642Z,2.90
2023-01-23T18:01:51.231Z,3.16
2023-01-23T18:04:20.546Z,3.27
2023-01-23T18:06:49.920Z,3.04
2023-01-23T18:09:18.681Z,2.71
2023-01-23T18:11:52.047Z,2.56
2023-01-23T18:14:41.473Z,2.38
2023-01-23T18:17:21.915Z,2.63
2023-01-23T18:19:51.596Z,3.10
2023-01-23T18:22:20.816Z,2.84
2023-01-23T18:24:49.257Z,2.91
2023-01-23T18:27:23.025Z,3.36
2023-01-23T18:30:05.194Z,2.59
2023-01-23T18:32:56.203Z,2.35
2023-01-23T18:35:37.571Z,2.77
2023-01-23T18:38:16.125Z,3.52
2023-01-23T18:40:55.130Z,3.08
2023-01-23T18:43:35.470Z,2.87
2023-01-23T18:46:03.301Z,3.57
2023-01-23T18:48:31.330Z,2.78
2023-01-23T18:51:08.318Z,2.79
2023-01-23T18:53:49.300Z,3.16
2023-01-23T18:56:25.932Z,2.76
2023-01-23T18:59:11.717Z,2.51
2023-01-23T19:01:50.168Z,2.52
2023-01-23T19:04:18.721Z,3.12
2023-01-23T19:06:46.848Z,3.67
2023-01-23T19:09:19.915Z,2.87
2023-01-23T19:11:59.984Z,2.73
2023-01-23T19:14:43.566Z,3.42
2023-01-23T19:17:22.510Z,3.12
2023-01-23T19:19:59.591Z,2.85
2023-01-23T19:22:33.698Z,2.67
2023-01-23T19:25:03.105Z,3.05
2023-01-23T19:27:31.138Z,3.33
2023-01-23T19:29:58.892Z,2.91
2023-01-23T19:32:26.799Z,2.71
2023-01-23T19:34:56.515Z,2.96
2023-01-23T19:37:25.998Z,2.91
2023-01-23T19:39:53.385Z,3.37
2023-01-23T19:42:22.151Z,2.99
2023-01-23T19:44:49.557Z,3.42
2023-01-23T19:47:16.932Z,3.79
2023-01-23T19:49:45.465Z,3.29
2023-01-23T19:52:14.707Z,3.64
2023-01-23T19:54:42.176Z,3.81
2023-01-23T19:57:09.624Z,2.54
2023-01-23T19:59:38.322Z,2.39
2023-01-23T20:02:18.402Z,2.62
2023-01-23T20:04:46.002Z,2.63
2023-01-23T20:07:14.271Z,2.54
2023-01-23T20:09:41.679Z,2.79
2023-01-23T20:12:09.191Z,3.44
2023-01-23T20:14:37.900Z,3.90
2023-01-23T20:17:05.340Z,3.14
2023-01-23T20:19:33.205Z,3.06
2023-01-23T20:22:00.649Z,3.16
2023-01-23T20:24:28.029Z,2.49
2023-01-23T20:26:55.465Z,2.45
2023-01-23T20:29:23.849Z,2.93
2023-01-23T20:31:54.225Z,2.65
2023-01-23T20:34:21.843Z,3.03
2023-01-23T20:36:49.263Z,2.94
2023-01-23T20:39:16.868Z,2.89
2023-01-23T20:41:44.297Z,2.67
2023-01-23T20:44:11.871Z,2.86
2023-01-23T20:46:39.349Z,3.33
2023-01-23T20:49:10.315Z,3.01
2023-01-23T20:51:37.805Z,3.16
2023-01-23T20:54:05.625Z,3.42
2023-01-23T20:56:33.116Z,3.92
2023-01-23T20:59:18.270Z,3.34
2023-01-23T21:02:04.528Z,4.08
2023-01-23T21:04:35.200Z,4.20
2023-01-23T21:07:03.333Z,3.25
2023-01-23T21:09:31.028Z,2.84
2023-01-23T21:11:58.460Z,2.80
2023-01-23T21:14:25.967Z,2.98
2023-01-23T21:16:53.616Z,2.91
2023-01-23T21:19:21.356Z,3.35
2023-01-23T21:21:50.235Z,3.23
2023-01-23T21:24:17.959Z,2.89
2023-01-23T21:26:45.581Z,3.59
2023-01-23T21:29:13.135Z,3.24
2023-01-23T21:31:40.982Z,3.53
2023-01-23T21:34:10.594Z,3.08
2023-01-23T21:36:38.852Z,3.60
2023-01-23T21:39:10.324Z,3.26
2023-01-23T21:41:37.910Z,3.54
2023-01-23T21:44:05.468Z,3.83
2023-01-23T21:46:32.993Z,3.84
2023-01-23T21:49:00.548Z,3.43
2023-01-23T21:51:28.817Z,3.31
2023-01-23T21:53:56.276Z,3.07
2023-01-23T21:56:25.585Z,3.49
2023-01-23T21:58:53.734Z,3.52
2023-01-23T22:01:42.590Z,3.54
2023-01-23T22:04:13.816Z,3.54
2023-01-23T22:06:43.291Z,3.56
2023-01-23T22:09:14.742Z,3.64
2023-01-23T22:11:43.623Z,3.89
2023-01-23T22:14:11.085Z,4.15
2023-01-23T22:16:49.160Z,3.40
2023-01-23T22:19:19.686Z,3.79
2023-01-23T22:21:47.361Z,4.02
2023-01-23T22:24:15.388Z,3.60
2023-01-23T22:26:44.247Z,3.94
2023-01-23T22:29:12.602Z,4.14
2023-01-23T22:31:40.181Z,5.20
2023-01-23T22:34:07.813Z,3.96
2023-01-23T22:36:35.475Z,2.77
2023-01-23T22:39:02.919Z,4.53
2023-01-23T22:41:30.333Z,3.19
2023-01-23T22:44:00.010Z,5.40
2023-01-23T22:46:28.722Z,6.09
2023-01-23T22:48:56.344Z,5.15
2023-01-23T22:51:26.246Z,4.28
2023-01-23T22:53:54.909Z,2.80
2023-01-23T22:56:22.591Z,2.61
2023-01-23T22:58:51.826Z,2.71
2023-01-23T23:01:23.024Z,2.27
2023-01-23T23:03:50.623Z,2.12
2023-01-23T23:06:18.272Z,2.49
2023-01-23T23:08:47.834Z,2.33
2023-01-23T23:11:17.746Z,2.24
2023-01-23T23:13:45.526Z,2.30
2023-01-23T23:16:14.759Z,2.26
2023-01-23T23:18:43.549Z,1.93
2023-01-23T23:21:15.428Z,2.05
2023-01-23T23:23:43.050Z,2.33
2023-01-23T23:26:11.954Z,2.07
2023-01-23T23:28:40.785Z,2.60
2023-01-23T23:31:09.669Z,3.28
2023-01-23T23:33:37.592Z,3.15
2023-01-23T23:36:07.204Z,2.39
2023-01-23T23:38:34.954Z,2.42
2023-01-23T23:41:04.818Z,3.09
2023-01-23T23:43:32.691Z,3.55
2023-01-23T23:46:02.913Z,3.01
2023-01-23T23:48:32.231Z,2.97
2023-01-23T23:51:00.825Z,2.56
2023-01-23T23:53:30.529Z,2.15
2023-01-23T23:55:58.021Z,2.61
2023-01-23T23:58:25.729Z,2.53
